Time;durP1;ratioP1;P1;durP2;ratioP2;P2;SDS_P1;SDS_P2;PMS_P1;PMS_P2;Temp;Humidity;BMP_temperature;BMP_pressure;BME280_temperature;BME280_humidity;BME280_pressure;Samples;Min_cycle;Max_cycle;Signal;HPM_P1;HPM_P2
2023/01/18 00:01:40;;;;;;;;;;;18.50;40.20;;;;;;8367155;28;19920;-45
2023/01/18 00:05:41;;;;;;;;;;;18.40;40.20;;;;;;8366375;28;19917;-44
2023/01/18 00:09:42;;;;;;;;;;;18.40;40.20;;;;;;8366678;28;19920;-45
2023/01/18 00:13:42;;;;;;;;;;;18.40;40.20;;;;;;8366592;28;20010;-44
2023/01/18 00:17:51;;;;;;;;;;;18.40;40.20;;;;;;8365917;28;19917;-44
2023/01/18 00:21:53;;;;;;;;;;;18.40;40.20;;;;;;8366381;28;19920;-44
2023/01/18 00:25:57;;;;;;;;;;;18.30;40.20;;;;;;8366244;28;19924;-44
2023/01/18 00:29:58;;;;;;;;;;;18.30;40.20;;;;;;8365618;28;19917;-44
2023/01/18 00:33:59;;;;;;;;;;;18.30;40.20;;;;;;8365778;28;19940;-45
2023/01/18 00:37:59;;;;;;;;;;;18.30;40.20;;;;;;8365356;28;20082;-45
2023/01/18 00:46:20;;;;;;;;;;;18.20;40.30;;;;;;8365752;28;20439;-45
2023/01/18 00:50:21;;;;;;;;;;;18.30;40.20;;;;;;8364985;28;19916;-44
2023/01/18 00:54:23;;;;;;;;;;;18.20;40.80;;;;;;8365033;28;20004;-44
2023/01/18 00:58:23;;;;;;;;;;;18.20;40.20;;;;;;8365090;28;20337;-44
2023/01/18 01:02:24;;;;;;;;;;;18.20;40.20;;;;;;8364412;28;19921;-45
2023/01/18 01:06:43;;;;;;;;;;;18.20;40.20;;;;;;8363781;28;20297;-44
2023/01/18 01:10:48;;;;;;;;;;;18.10;40.20;;;;;;8364852;28;19990;-44
2023/01/18 01:27:45;;;;;;;;;;;18.10;40.30;;;;;;8364457;28;19924;-43
2023/01/18 01:31:46;;;;;;;;;;;18.10;40.30;;;;;;8364242;28;20362;-44
2023/01/18 01:35:46;;;;;;;;;;;18.10;40.30;;;;;;8363720;28;20350;-44
2023/01/18 01:39:47;;;;;;;;;;;18.00;40.30;;;;;;8363678;28;19916;-44
2023/01/18 01:43:58;;;;;;;;;;;18.00;40.30;;;;;;8363454;28;19925;-44
2023/01/18 01:47:58;;;;;;;;;;;18.00;40.30;;;;;;8363234;28;19917;-44
2023/01/18 01:52:03;;;;;;;;;;;18.00;40.30;;;;;;8363703;28;19943;-44
2023/01/18 01:56:03;;;;;;;;;;;18.00;40.30;;;;;;8363260;28;20007;-44
2023/01/18 02:00:12;;;;;;;;;;;18.00;40.30;;;;;;8363634;28;19924;-43
2023/01/18 02:04:12;;;;;;;;;;;18.00;40.30;;;;;;8362510;28;20019;-43
2023/01/18 02:08:21;;;;;;;;;;;17.90;40.30;;;;;;8362662;28;19924;-44
2023/01/18 02:12:22;;;;;;;;;;;17.90;40.30;;;;;;8363694;28;19917;-44
2023/01/18 02:16:32;;;;;;;;;;;17.90;40.30;;;;;;8362780;28;19921;-44
2023/01/18 02:20:55;;;;;;;;;;;17.90;40.30;;;;;;8362710;28;20440;-45
2023/01/18 02:24:55;;;;;;;;;;;17.90;40.30;;;;;;8362999;28;19931;-43
2023/01/18 02:29:08;;;;;;;;;;;17.90;40.30;;;;;;8362546;28;19917;-44
2023/01/18 02:33:20;;;;;;;;;;;17.90;40.30;;;;;;8362819;28;19948;-45
2023/01/18 02:37:24;;;;;;;;;;;17.90;40.30;;;;;;8362822;28;19913;-44
2023/01/18 02:50:19;;;;;;;;;;;17.80;40.30;;;;;;8362564;28;20381;-45
2023/01/18 02:54:23;;;;;;;;;;;17.80;40.30;;;;;;8362316;28;19921;-44
2023/01/18 02:58:32;;;;;;;;;;;17.80;40.30;;;;;;8362488;28;19926;-43
2023/01/18 03:02:33;;;;;;;;;;;17.80;40.30;;;;;;8362160;28;20373;-45
2023/01/18 03:06:33;;;;;;;;;;;17.80;40.30;;;;;;8362466;28;19917;-45
2023/01/18 03:10:37;;;;;;;;;;;17.80;40.40;;;;;;8362363;28;20008;-44
2023/01/18 03:14:49;;;;;;;;;;;17.80;40.30;;;;;;8361755;28;20119;-45
2023/01/18 03:19:01;;;;;;;;;;;17.80;40.40;;;;;;8362099;28;19927;-45
2023/01/18 03:36:08;;;;;;;;;;;17.80;40.30;;;;;;8367422;28;19924;-44
2023/01/18 03:40:11;;;;;;;;;;;17.80;40.30;;;;;;8367705;28;19948;-45
2023/01/18 03:44:30;;;;;;;;;;;17.70;40.30;;;;;;8367307;28;19932;-44
2023/01/18 03:48:31;;;;;;;;;;;17.70;40.20;;;;;;8367009;28;20062;-44
2023/01/18 03:52:41;;;;;;;;;;;17.80;40.30;;;;;;8367481;28;19912;-45
2023/01/18 03:56:42;;;;;;;;;;;17.70;40.30;;;;;;8366977;28;19928;-45
2023/01/18 04:00:43;;;;;;;;;;;17.70;40.30;;;;;;8366951;28;19917;-45
2023/01/18 04:04:43;;;;;;;;;;;17.70;40.30;;;;;;8366802;28;19921;-46
2023/01/18 04:08:43;;;;;;;;;;;17.70;40.30;;;;;;8366093;28;19931;-45
2023/01/18 04:12:44;;;;;;;;;;;17.70;40.30;;;;;;8366984;28;19959;-46
2023/01/18 04:16:44;;;;;;;;;;;17.70;40.30;;;;;;8366261;28;19957;-45
2023/01/18 04:20:45;;;;;;;;;;;17.70;40.40;;;;;;8365896;28;20321;-45
2023/01/18 04:24:45;;;;;;;;;;;17.70;40.40;;;;;;8365958;28;20271;-46
2023/01/18 04:28:46;;;;;;;;;;;17.70;40.40;;;;;;8365963;28;20069;-46
2023/01/18 04:32:46;;;;;;;;;;;17.70;40.30;;;;;;8365656;28;20434;-46
2023/01/18 04:36:47;;;;;;;;;;;17.70;40.40;;;;;;8365743;28;19960;-47
2023/01/18 04:40:47;;;;;;;;;;;17.70;40.40;;;;;;8365377;28;19980;-45
2023/01/18 04:44:48;;;;;;;;;;;17.70;40.30;;;;;;8364970;28;19931;-47
2023/01/18 04:48:49;;;;;;;;;;;17.70;40.30;;;;;;8365673;28;19913;-45
2023/01/18 04:52:50;;;;;;;;;;;17.70;40.30;;;;;;8365938;28;19928;-45
2023/01/18 04:56:51;;;;;;;;;;;17.70;40.30;;;;;;8365041;28;20377;-45
2023/01/18 05:00:51;;;;;;;;;;;17.70;40.30;;;;;;8365433;28;19924;-44
2023/01/18 05:04:51;;;;;;;;;;;17.60;40.20;;;;;;8364759;28;19924;-43
2023/01/18 05:08:52;;;;;;;;;;;17.60;40.20;;;;;;8364517;28;20009;-44
2023/01/18 05:12:52;;;;;;;;;;;17.70;40.40;;;;;;8339185;28;20344;-44
2023/01/18 05:16:53;;;;;;;;;;;17.70;40.40;;;;;;8356769;28;20384;-44
2023/01/18 05:20:53;;;;;;;;;;;17.80;40.40;;;;;;8364129;28;19917;-44
2023/01/18 05:24:54;;;;;;;;;;;17.90;40.30;;;;;;8364462;28;19921;-44
2023/01/18 05:28:55;;;;;;;;;;;17.90;40.20;;;;;;8364544;28;19917;-44
2023/01/18 05:32:56;;;;;;;;;;;18.00;40.10;;;;;;8363550;28;20003;-43
2023/01/18 05:36:57;;;;;;;;;;;18.10;40.20;;;;;;8363897;28;19917;-45
2023/01/18 05:40:57;;;;;;;;;;;18.10;40.00;;;;;;8363644;28;19955;-44
2023/01/18 05:44:58;;;;;;;;;;;18.20;40.10;;;;;;8363619;28;20002;-44
2023/01/18 05:48:58;;;;;;;;;;;18.30;40.00;;;;;;8364043;28;19978;-44
2023/01/18 05:52:59;;;;;;;;;;;18.30;39.90;;;;;;8362465;28;20393;-42
2023/01/18 05:56:59;;;;;;;;;;;18.40;39.90;;;;;;8363654;28;20002;-44
2023/01/18 06:01:00;;;;;;;;;;;18.40;40.00;;;;;;8363472;28;19921;-45
2023/01/18 06:05:00;;;;;;;;;;;18.40;39.80;;;;;;8362879;28;19928;-45
2023/01/18 06:09:01;;;;;;;;;;;18.40;40.50;;;;;;8363386;28;19916;-47
2023/01/18 06:13:01;;;;;;;;;;;18.50;39.90;;;;;;8363709;28;19925;-44
2023/01/18 06:17:02;;;;;;;;;;;18.50;39.80;;;;;;8362520;28;19913;-44
2023/01/18 06:21:02;;;;;;;;;;;18.60;39.90;;;;;;8363424;28;20401;-44
2023/01/18 06:25:03;;;;;;;;;;;18.60;39.90;;;;;;8362787;28;20004;-45
2023/01/18 06:29:04;;;;;;;;;;;18.60;39.90;;;;;;8362519;28;19917;-45
2023/01/18 06:33:06;;;;;;;;;;;18.70;39.90;;;;;;8362731;28;19951;-45
2023/01/18 06:37:07;;;;;;;;;;;18.70;39.90;;;;;;8362752;28;20012;-45
2023/01/18 06:41:08;;;;;;;;;;;18.70;39.80;;;;;;8362393;28;20278;-44
2023/01/18 06:45:08;;;;;;;;;;;18.80;39.90;;;;;;8362854;28;19927;-45
2023/01/18 06:49:10;;;;;;;;;;;18.80;39.90;;;;;;8363156;28;19917;-46
2023/01/18 06:53:10;;;;;;;;;;;18.80;39.80;;;;;;8361992;28;19921;-44
2023/01/18 06:57:11;;;;;;;;;;;18.80;39.80;;;;;;8362623;28;20351;-45
2023/01/18 07:01:11;;;;;;;;;;;18.90;39.80;;;;;;8362603;28;19920;-44
2023/01/18 07:05:12;;;;;;;;;;;18.90;39.80;;;;;;8368143;28;19925;-46
2023/01/18 07:09:13;;;;;;;;;;;18.90;39.80;;;;;;8368850;28;20400;-45
2023/01/18 07:13:14;;;;;;;;;;;18.90;39.80;;;;;;8368543;28;19917;-45
2023/01/18 07:17:14;;;;;;;;;;;18.90;39.80;;;;;;8367749;28;19913;-45
2023/01/18 07:21:16;;;;;;;;;;;18.90;39.80;;;;;;8367816;28;19928;-44
2023/01/18 07:25:17;;;;;;;;;;;18.90;39.80;;;;;;8368053;28;20366;-47
2023/01/18 07:29:18;;;;;;;;;;;19.00;39.80;;;;;;8367713;28;20354;-45
2023/01/18 07:33:18;;;;;;;;;;;19.00;39.80;;;;;;8368008;28;19970;-44
2023/01/18 07:37:19;;;;;;;;;;;19.00;39.80;;;;;;8367604;28;19917;-44
2023/01/18 07:41:20;;;;;;;;;;;19.00;39.70;;;;;;8366996;28;19921;-45
2023/01/18 07:45:21;;;;;;;;;;;19.10;39.80;;;;;;8367415;28;20412;-45
2023/01/18 07:49:21;;;;;;;;;;;19.10;39.80;;;;;;8367635;28;20007;-45
2023/01/18 07:53:22;;;;;;;;;;;19.10;39.80;;;;;;8366490;28;19917;-46
2023/01/18 07:57:23;;;;;;;;;;;19.10;40.40;;;;;;8367161;28;19920;-46
2023/01/18 08:01:24;;;;;;;;;;;19.10;39.80;;;;;;8366764;28;19931;-45
2023/01/18 08:05:26;;;;;;;;;;;19.10;39.80;;;;;;8364975;28;19975;-45
2023/01/18 08:09:26;;;;;;;;;;;19.10;39.80;;;;;;8366892;28;19912;-44
2023/01/18 08:13:27;;;;;;;;;;;19.10;39.80;;;;;;8365761;28;19924;-44
2023/01/18 08:17:29;;;;;;;;;;;19.20;39.70;;;;;;8365964;28;19921;-45
2023/01/18 08:21:30;;;;;;;;;;;19.10;39.60;;;;;;8366274;28;19967;-45
2023/01/18 08:25:32;;;;;;;;;;;19.10;39.60;;;;;;8366390;28;20285;-44
2023/01/18 08:29:32;;;;;;;;;;;19.10;39.70;;;;;;8365813;28;19951;-45
2023/01/18 08:33:37;;;;;;;;;;;19.10;39.70;;;;;;8365828;28;19917;-45
2023/01/18 08:37:37;;;;;;;;;;;19.10;39.70;;;;;;8366175;28;19917;-45
2023/01/18 08:41:38;;;;;;;;;;;19.00;39.60;;;;;;8365114;28;20431;-44
2023/01/18 08:45:38;;;;;;;;;;;19.00;39.60;;;;;;8365534;28;19917;-45
2023/01/18 08:49:39;;;;;;;;;;;18.90;39.60;;;;;;8365638;28;20344;-45
2023/01/18 08:53:39;;;;;;;;;;;18.90;39.50;;;;;;8364853;28;19947;-45
2023/01/18 08:57:39;;;;;;;;;;;18.90;40.10;;;;;;8365475;28;19925;-45
2023/01/18 09:01:40;;;;;;;;;;;18.90;39.60;;;;;;8364769;28;19921;-44
2023/01/18 09:05:40;;;;;;;;;;;18.90;39.60;;;;;;8364420;28;20402;-45
2023/01/18 09:09:41;;;;;;;;;;;18.90;39.60;;;;;;8365040;28;19917;-45
2023/01/18 09:13:42;;;;;;;;;;;18.90;39.70;;;;;;8364483;28;19924;-45
2023/01/18 09:17:43;;;;;;;;;;;18.80;39.60;;;;;;8363789;28;19921;-45
2023/01/18 09:21:45;;;;;;;;;;;18.80;39.60;;;;;;8364266;28;19966;-43
2023/01/18 09:25:45;;;;;;;;;;;18.80;39.60;;;;;;8352707;28;20281;-44
2023/01/18 09:29:50;;;;;;;;;;;18.70;39.60;;;;;;8363728;28;19947;-45
2023/01/18 09:33:51;;;;;;;;;;;18.80;39.70;;;;;;8364185;28;20020;-46
2023/01/18 09:37:52;;;;;;;;;;;18.70;39.70;;;;;;8363711;28;20022;-45
2023/01/18 09:41:55;;;;;;;;;;;18.70;39.70;;;;;;8363170;28;19920;-46
2023/01/18 09:45:55;;;;;;;;;;;18.70;39.70;;;;;;8363903;28;20328;-44
2023/01/18 09:49:57;;;;;;;;;;;18.70;39.70;;;;;;8363594;28;20003;-45
2023/01/18 09:54:08;;;;;;;;;;;18.70;39.70;;;;;;8363307;28;19923;-44
2023/01/18 09:58:27;;;;;;;;;;;18.60;39.70;;;;;;8363686;28;20409;-44
2023/01/18 10:02:31;;;;;;;;;;;18.60;39.70;;;;;;8362641;28;19925;-45
2023/01/18 10:06:35;;;;;;;;;;;18.60;39.80;;;;;;8363317;28;20374;-45
2023/01/18 10:10:37;;;;;;;;;;;18.60;39.80;;;;;;8363321;28;20328;-45
2023/01/18 10:14:53;;;;;;;;;;;18.60;39.80;;;;;;8362821;28;19917;-45
2023/01/18 10:18:56;;;;;;;;;;;18.60;39.90;;;;;;8363094;28;20366;-45
2023/01/18 10:23:27;;;;;;;;;;;18.50;39.80;;;;;;8362935;28;19921;-44
2023/01/18 10:27:35;;;;;;;;;;;18.50;39.80;;;;;;8309424;28;20016;-45
2023/01/18 10:31:42;;;;;;;;;;;18.50;39.80;;;;;;8362869;28;19913;-45
2023/01/18 10:35:46;;;;;;;;;;;18.50;39.80;;;;;;8361029;28;19939;-44
2023/01/18 10:39:50;;;;;;;;;;;18.50;39.90;;;;;;8367392;28;19917;-46
2023/01/18 10:43:51;;;;;;;;;;;18.50;39.90;;;;;;8369323;28;19924;-45
2023/01/18 10:47:52;;;;;;;;;;;18.50;39.90;;;;;;8369052;28;19917;-44
2023/01/18 10:51:53;;;;;;;;;;;18.50;39.90;;;;;;8369319;28;19917;-46
2023/01/18 10:56:01;;;;;;;;;;;18.50;39.90;;;;;;8369035;28;19927;-45
2023/01/18 11:00:11;;;;;;;;;;;18.40;39.80;;;;;;8368772;28;19917;-45
2023/01/18 11:04:17;;;;;;;;;;;18.40;39.90;;;;;;8356539;28;19933;-46
2023/01/18 11:08:31;;;;;;;;;;;18.40;39.90;;;;;;8352584;28;20382;-46
2023/01/18 11:12:40;;;;;;;;;;;18.40;39.90;;;;;;8368440;28;20323;-45
2023/01/18 11:16:55;;;;;;;;;;;18.40;39.90;;;;;;8368356;28;19921;-45
2023/01/18 11:20:56;;;;;;;;;;;18.40;39.90;;;;;;8368197;28;19999;-45
2023/01/18 11:24:57;;;;;;;;;;;18.40;40.00;;;;;;8367943;28;19925;-46
2023/01/18 11:29:01;;;;;;;;;;;18.40;39.90;;;;;;8368288;28;19916;-44
2023/01/18 11:33:02;;;;;;;;;;;18.40;40.00;;;;;;8367607;28;19923;-45
2023/01/18 11:37:02;;;;;;;;;;;18.40;39.90;;;;;;8367685;28;19916;-45
2023/01/18 11:41:12;;;;;;;;;;;18.40;39.90;;;;;;8367429;28;19920;-46
2023/01/18 11:45:13;;;;;;;;;;;18.30;39.90;;;;;;8367445;28;19925;-44
2023/01/18 11:49:13;;;;;;;;;;;18.30;40.00;;;;;;8366368;28;20284;-45
2023/01/18 11:53:27;;;;;;;;;;;18.30;40.00;;;;;;8367201;28;19984;-44
2023/01/18 11:57:27;;;;;;;;;;;18.30;40.10;;;;;;8367397;28;20000;-45
2023/01/18 12:01:37;;;;;;;;;;;18.30;40.00;;;;;;8367411;28;19986;-43
2023/01/18 12:05:46;;;;;;;;;;;18.20;40.00;;;;;;8367221;28;19932;-46
2023/01/18 12:09:56;;;;;;;;;;;18.20;39.90;;;;;;8366965;28;19956;-45
2023/01/18 12:14:02;;;;;;;;;;;18.30;40.00;;;;;;8366776;28;19917;-45
2023/01/18 12:18:10;;;;;;;;;;;18.20;39.90;;;;;;8366643;28;19924;-45
2023/01/18 12:22:24;;;;;;;;;;;18.30;40.00;;;;;;8366881;28;19936;-45
2023/01/18 12:26:27;;;;;;;;;;;18.20;39.90;;;;;;8366383;28;21922;-46
2023/01/18 12:30:50;;;;;;;;;;;18.20;39.90;;;;;;8366178;28;19917;-45
2023/01/18 12:35:03;;;;;;;;;;;18.30;39.90;;;;;;8366440;28;20431;-45
2023/01/18 12:39:11;;;;;;;;;;;18.20;39.90;;;;;;8365732;28;19940;-46
2023/01/18 12:43:17;;;;;;;;;;;18.30;40.00;;;;;;8365899;28;20293;-44
2023/01/18 12:47:36;;;;;;;;;;;18.20;39.90;;;;;;8365182;28;20386;-45
2023/01/18 12:51:37;;;;;;;;;;;18.20;39.90;;;;;;8365922;28;19912;-46
2023/01/18 12:55:39;;;;;;;;;;;18.20;39.90;;;;;;8365269;28;19920;-45
2023/01/18 12:59:52;;;;;;;;;;;18.20;39.90;;;;;;8364541;28;20391;-45
2023/01/18 13:04:04;;;;;;;;;;;18.20;39.90;;;;;;8364953;28;19978;-46
2023/01/18 13:08:08;;;;;;;;;;;18.20;40.00;;;;;;8364520;28;19920;-46
2023/01/18 13:12:10;;;;;;;;;;;18.20;40.00;;;;;;8364802;28;19939;-46
2023/01/18 13:16:30;;;;;;;;;;;18.20;40.00;;;;;;8364217;28;21292;-46
2023/01/18 13:20:37;;;;;;;;;;;18.20;40.00;;;;;;8364238;28;19917;-45
2023/01/18 13:24:43;;;;;;;;;;;18.20;40.00;;;;;;8364454;28;19925;-44
2023/01/18 13:28:45;;;;;;;;;;;18.10;40.00;;;;;;8364291;28;20070;-45
2023/01/18 13:32:47;;;;;;;;;;;18.10;40.00;;;;;;8363530;28;19916;-44
2023/01/18 13:36:48;;;;;;;;;;;18.10;40.00;;;;;;8364248;28;19945;-45
2023/01/18 13:41:02;;;;;;;;;;;18.10;39.90;;;;;;8364073;28;20297;-47
2023/01/18 13:45:18;;;;;;;;;;;18.10;39.90;;;;;;8363674;28;19932;-44
2023/01/18 13:49:19;;;;;;;;;;;18.20;39.90;;;;;;8362964;28;19923;-44
2023/01/18 13:53:20;;;;;;;;;;;18.10;39.90;;;;;;8363027;28;20290;-44
2023/01/18 13:57:21;;;;;;;;;;;18.10;39.90;;;;;;8364812;28;19932;-43
2023/01/18 14:01:22;;;;;;;;;;;18.10;39.90;;;;;;8364250;28;19923;-44
2023/01/18 14:05:24;;;;;;;;;;;18.10;39.90;;;;;;8362884;28;19952;-44
2023/01/18 14:09:40;;;;;;;;;;;18.10;40.00;;;;;;8362107;28;20208;-45
2023/01/18 14:13:58;;;;;;;;;;;18.10;40.50;;;;;;8362768;28;20343;-44
2023/01/18 14:17:58;;;;;;;;;;;18.10;40.00;;;;;;8362894;28;19917;-44
2023/01/18 14:22:18;;;;;;;;;;;18.10;40.00;;;;;;8363125;28;20008;-44
2023/01/18 14:26:19;;;;;;;;;;;18.10;40.00;;;;;;8362708;28;20059;-44
2023/01/18 14:30:24;;;;;;;;;;;18.10;40.00;;;;;;8363192;28;20362;-44
2023/01/18 14:34:28;;;;;;;;;;;18.10;40.00;;;;;;8363023;28;19919;-44
2023/01/18 14:38:29;;;;;;;;;;;18.10;40.00;;;;;;8362585;28;19921;-45
2023/01/18 14:42:33;;;;;;;;;;;18.00;40.00;;;;;;8363131;28;20020;-45
2023/01/18 14:46:34;;;;;;;;;;;18.00;40.00;;;;;;8362809;28;20008;-44
2023/01/18 14:50:37;;;;;;;;;;;18.00;40.00;;;;;;8362354;28;19924;-45
2023/01/18 14:54:37;;;;;;;;;;;18.00;40.00;;;;;;8362481;28;19920;-44
2023/01/18 14:58:57;;;;;;;;;;;18.00;40.00;;;;;;8362544;28;19926;-44
2023/01/18 15:02:58;;;;;;;;;;;18.00;40.00;;;;;;8361806;28;20381;-46
2023/01/18 15:07:06;;;;;;;;;;;18.00;40.00;;;;;;8362495;28;19920;-45
2023/01/18 15:11:07;;;;;;;;;;;18.00;40.00;;;;;;8361825;28;19939;-45
2023/01/18 15:15:14;;;;;;;;;;;18.00;40.00;;;;;;8362331;28;19921;-45
2023/01/18 15:19:16;;;;;;;;;;;18.00;40.00;;;;;;8362053;28;19924;-44
2023/01/18 15:23:17;;;;;;;;;;;18.00;40.00;;;;;;8363241;28;19925;-45
2023/01/18 15:27:18;;;;;;;;;;;17.90;39.90;;;;;;8368126;28;19913;-46
2023/01/18 15:31:18;;;;;;;;;;;17.90;39.90;;;;;;8368267;28;19917;-45
2023/01/18 15:35:21;;;;;;;;;;;17.90;39.90;;;;;;8367233;28;19956;-45
2023/01/18 15:39:21;;;;;;;;;;;17.90;39.90;;;;;;8367787;28;19924;-45
2023/01/18 15:43:24;;;;;;;;;;;17.90;39.90;;;;;;8367391;28;19933;-45
2023/01/18 15:47:26;;;;;;;;;;;17.90;39.90;;;;;;8366786;28;19958;-45
2023/01/18 15:55:50;;;;;;;;;;;17.90;39.90;;;;;;8368246;28;19927;-46
2023/01/18 15:59:50;;;;;;;;;;;17.80;39.90;;;;;;8366100;28;19916;-47
2023/01/18 16:03:53;;;;;;;;;;;17.90;39.90;;;;;;8366436;28;20035;-44
2023/01/18 16:08:08;;;;;;;;;;;17.90;39.90;;;;;;8366803;28;20055;-44
2023/01/18 16:12:08;;;;;;;;;;;17.90;40.10;;;;;;8366000;28;19917;-45
2023/01/18 16:16:14;;;;;;;;;;;17.90;40.20;;;;;;8366264;28;19916;-46
2023/01/18 16:20:15;;;;;;;;;;;18.00;40.10;;;;;;8365758;28;20388;-44
2023/01/18 16:24:18;;;;;;;;;;;18.10;40.00;;;;;;8365851;28;20420;-44
2023/01/18 16:28:23;;;;;;;;;;;18.10;39.90;;;;;;8366326;28;19913;-46
2023/01/18 16:32:23;;;;;;;;;;;18.20;39.80;;;;;;8365613;28;19917;-45
2023/01/18 16:36:24;;;;;;;;;;;18.30;39.80;;;;;;8365147;28;19916;-45
2023/01/18 16:40:24;;;;;;;;;;;18.30;39.70;;;;;;8365758;28;19925;-45
2023/01/18 16:44:25;;;;;;;;;;;18.40;39.80;;;;;;8364537;28;19925;-45
2023/01/18 16:48:26;;;;;;;;;;;18.40;39.70;;;;;;8365661;28;19920;-44
2023/01/18 16:52:27;;;;;;;;;;;18.50;39.70;;;;;;8365298;28;19963;-46
2023/01/18 16:56:27;;;;;;;;;;;18.50;39.70;;;;;;8364892;28;19921;-45
2023/01/18 17:00:30;;;;;;;;;;;18.60;39.70;;;;;;8364915;28;19917;-45
2023/01/18 17:04:30;;;;;;;;;;;18.60;39.70;;;;;;8351738;28;19978;-43
2023/01/18 17:08:31;;;;;;;;;;;18.60;39.60;;;;;;8364460;28;19916;-45
2023/01/18 17:12:31;;;;;;;;;;;18.70;39.60;;;;;;8351893;28;19924;-44
2023/01/18 17:16:32;;;;;;;;;;;18.70;39.60;;;;;;8356346;28;20008;-45
2023/01/18 17:20:33;;;;;;;;;;;18.80;39.60;;;;;;8352302;28;19924;-45
2023/01/18 17:24:34;;;;;;;;;;;18.80;39.50;;;;;;8354148;28;20282;-45
2023/01/18 17:28:34;;;;;;;;;;;18.80;39.40;;;;;;8363240;28;19924;-45
2023/01/18 17:32:35;;;;;;;;;;;18.80;40.10;;;;;;8362924;28;19916;-44
2023/01/18 17:36:35;;;;;;;;;;;18.90;39.40;;;;;;8363595;28;19923;-46
2023/01/18 17:40:36;;;;;;;;;;;18.90;39.50;;;;;;8374945;28;20053;-45
2023/01/18 17:44:36;;;;;;;;;;;18.90;39.40;;;;;;8361459;28;20386;-45
2023/01/18 17:48:36;;;;;;;;;;;18.90;39.30;;;;;;8360907;28;19940;-45
2023/01/18 17:52:38;;;;;;;;;;;19.00;39.40;;;;;;8346004;28;19960;-45
2023/01/18 17:56:38;;;;;;;;;;;19.00;39.30;;;;;;8363376;28;19921;-45
2023/01/18 18:00:39;;;;;;;;;;;19.00;39.30;;;;;;8361578;28;19916;-45
2023/01/18 18:04:39;;;;;;;;;;;19.10;39.20;;;;;;8363380;28;19932;-46
2023/01/18 18:08:39;;;;;;;;;;;19.10;39.30;;;;;;8341634;28;19917;-44
2023/01/18 18:12:41;;;;;;;;;;;19.10;39.20;;;;;;8374390;28;20003;-44
2023/01/18 18:16:41;;;;;;;;;;;19.10;39.20;;;;;;8373049;28;19917;-45
2023/01/18 18:20:41;;;;;;;;;;;19.20;39.20;;;;;;8357851;28;19947;-44
2023/01/18 18:24:42;;;;;;;;;;;19.20;39.10;;;;;;8362901;28;19929;-45
2023/01/18 18:28:42;;;;;;;;;;;19.20;39.20;;;;;;8360702;28;19924;-43
2023/01/18 18:32:43;;;;;;;;;;;19.20;39.10;;;;;;8362290;28;19939;-45
2023/01/18 18:36:43;;;;;;;;;;;19.30;39.20;;;;;;8362242;28;19925;-45
2023/01/18 18:40:44;;;;;;;;;;;19.30;39.10;;;;;;8361516;28;20467;-45
2023/01/18 18:44:45;;;;;;;;;;;19.30;39.50;;;;;;8355178;28;20351;-44
2023/01/18 18:48:45;;;;;;;;;;;19.30;39.10;;;;;;8347481;28;19917;-43
2023/01/18 18:52:45;;;;;;;;;;;19.30;39.00;;;;;;8356136;28;19970;-46
2023/01/18 18:56:46;;;;;;;;;;;19.30;39.00;;;;;;8346925;28;19932;-44
2023/01/18 19:00:46;;;;;;;;;;;19.40;39.00;;;;;;8354339;28;20263;-44
2023/01/18 19:04:47;;;;;;;;;;;19.40;39.10;;;;;;8376997;28;19924;-44
2023/01/18 19:08:48;;;;;;;;;;;19.40;39.00;;;;;;8357771;28;19917;-45
2023/01/18 19:12:48;;;;;;;;;;;19.40;39.00;;;;;;8368577;28;20362;-44
2023/01/18 19:16:48;;;;;;;;;;;19.40;39.00;;;;;;8367287;28;19970;-45
2023/01/18 19:20:50;;;;;;;;;;;19.50;39.00;;;;;;8360747;28;19925;-45
2023/01/18 19:24:50;;;;;;;;;;;19.50;39.00;;;;;;8366860;28;19925;-44
2023/01/18 19:28:50;;;;;;;;;;;19.50;38.90;;;;;;8367657;28;19921;-44
2023/01/18 19:32:51;;;;;;;;;;;19.50;38.90;;;;;;8365973;28;19928;-44
2023/01/18 19:36:51;;;;;;;;;;;19.50;38.90;;;;;;8355442;28;19971;-45
2023/01/18 19:40:52;;;;;;;;;;;19.50;38.80;;;;;;8345053;28;19913;-43
2023/01/18 19:44:52;;;;;;;;;;;19.50;38.80;;;;;;8360010;28;20007;-43
2023/01/18 19:48:57;;;;;;;;;;;19.50;38.80;;;;;;8345360;28;19940;-45
2023/01/18 19:52:57;;;;;;;;;;;19.60;38.80;;;;;;8360855;28;20258;-44
2023/01/18 19:56:57;;;;;;;;;;;19.60;38.80;;;;;;8354508;28;19921;-43
2023/01/18 20:00:58;;;;;;;;;;;19.60;38.80;;;;;;8344221;28;19921;-45
2023/01/18 20:04:59;;;;;;;;;;;19.60;39.30;;;;;;8362762;28;19925;-44
2023/01/18 20:08:59;;;;;;;;;;;19.60;38.70;;;;;;8364141;28;19917;-44
2023/01/18 20:12:59;;;;;;;;;;;19.60;38.70;;;;;;8355383;28;19917;-44
2023/01/18 20:17:00;;;;;;;;;;;19.60;38.60;;;;;;8349561;28;20389;-44
2023/01/18 20:21:09;;;;;;;;;;;19.60;38.60;;;;;;8365316;28;19932;-43
2023/01/18 20:25:10;;;;;;;;;;;19.70;38.60;;;;;;8344790;28;19925;-45
2023/01/18 20:29:10;;;;;;;;;;;19.60;38.60;;;;;;8366014;28;20018;-43
2023/01/18 20:33:11;;;;;;;;;;;19.60;38.50;;;;;;8366278;28;20348;-44
2023/01/18 20:37:11;;;;;;;;;;;19.60;38.60;;;;;;8365922;28;20014;-44
2023/01/18 20:41:12;;;;;;;;;;;19.70;38.60;;;;;;8365539;28;19917;-44
2023/01/18 20:45:12;;;;;;;;;;;19.70;38.60;;;;;;8365693;28;19928;-45
2023/01/18 20:49:13;;;;;;;;;;;19.70;38.50;;;;;;8365717;28;19916;-45
2023/01/18 20:53:13;;;;;;;;;;;19.70;38.50;;;;;;8364946;28;20002;-44
2023/01/18 20:57:14;;;;;;;;;;;19.70;38.50;;;;;;8365289;28;19920;-45
2023/01/18 21:01:15;;;;;;;;;;;19.70;38.50;;;;;;8365340;28;19913;-45
2023/01/18 21:05:15;;;;;;;;;;;19.70;38.50;;;;;;8364742;28;19948;-44
2023/01/18 21:09:16;;;;;;;;;;;19.70;38.50;;;;;;8365561;28;19925;-45
2023/01/18 21:13:16;;;;;;;;;;;19.70;38.40;;;;;;8364812;28;19920;-44
2023/01/18 21:17:17;;;;;;;;;;;19.70;38.40;;;;;;8364413;28;19913;-44
2023/01/18 21:21:17;;;;;;;;;;;19.70;38.30;;;;;;8364779;28;19919;-45
2023/01/18 21:25:17;;;;;;;;;;;19.70;38.30;;;;;;8364602;28;19925;-44
2023/01/18 21:29:18;;;;;;;;;;;19.70;38.30;;;;;;8363900;28;19917;-45
2023/01/18 21:33:18;;;;;;;;;;;19.60;38.30;;;;;;8364439;28;19924;-44
2023/01/18 21:37:19;;;;;;;;;;;19.60;38.30;;;;;;8363980;28;19913;-44
2023/01/18 21:45:57;;;;;;;;;;;19.50;38.30;;;;;;8370368;28;19974;-44
2023/01/18 21:54:17;;;;;;;;;;;19.50;38.30;;;;;;8363383;28;19928;-43
2023/01/18 22:02:36;;;;;;;;;;;19.40;38.30;;;;;;8363019;28;19932;-43
2023/01/18 22:06:37;;;;;;;;;;;19.40;38.30;;;;;;8363604;28;19917;-44
2023/01/18 22:10:37;;;;;;;;;;;19.30;38.30;;;;;;8363761;28;19920;-44
2023/01/18 22:14:38;;;;;;;;;;;19.30;38.20;;;;;;8363031;28;19917;-44
2023/01/18 22:18:38;;;;;;;;;;;19.30;38.30;;;;;;8363440;28;19920;-44
2023/01/18 22:22:38;;;;;;;;;;;19.20;38.30;;;;;;8362875;28;19932;-44
2023/01/18 22:26:40;;;;;;;;;;;19.20;38.40;;;;;;8362462;28;20353;-44
2023/01/18 22:30:40;;;;;;;;;;;19.20;38.50;;;;;;8363268;28;20014;-43
2023/01/18 22:34:40;;;;;;;;;;;19.10;38.50;;;;;;8367226;28;19921;-43
2023/01/18 22:38:41;;;;;;;;;;;19.10;38.50;;;;;;8369152;28;19921;-43
2023/01/18 22:42:42;;;;;;;;;;;19.00;38.60;;;;;;8369437;28;20251;-44
2023/01/18 22:46:42;;;;;;;;;;;19.00;38.80;;;;;;8369300;28;19978;-43
2023/01/18 22:50:49;;;;;;;;;;;18.90;38.70;;;;;;8369151;28;20417;-44
2023/01/18 22:54:50;;;;;;;;;;;18.90;38.90;;;;;;8369233;28;19974;-44
2023/01/18 22:58:51;;;;;;;;;;;18.90;39.00;;;;;;8368973;28;20378;-43
2023/01/18 23:02:51;;;;;;;;;;;18.80;39.00;;;;;;8367820;28;19983;-44
2023/01/18 23:06:53;;;;;;;;;;;18.80;39.00;;;;;;8368685;28;19928;-44
2023/01/18 23:10:56;;;;;;;;;;;18.80;39.00;;;;;;8368059;28;19913;-44
2023/01/18 23:19:16;;;;;;;;;;;18.70;39.00;;;;;;8370848;28;20059;-42
2023/01/18 23:23:17;;;;;;;;;;;18.60;39.00;;;;;;8366348;28;19929;-44
2023/01/18 23:27:17;;;;;;;;;;;18.60;38.90;;;;;;8368111;28;19923;-44
2023/01/18 23:31:17;;;;;;;;;;;18.60;39.00;;;;;;8368245;28;20357;-43
2023/01/18 23:35:18;;;;;;;;;;;18.60;39.00;;;;;;8367849;28;19913;-43
2023/01/18 23:56:35;;;;;;;;;;;18.40;39.10;;;;;;8368492;28;19967;-43
